Tiempo atmosférico en la estación meteorológica de Areso, Navarra (520 m.)



Fecha
DESCASC
Temp. máxima en grados centígrados (hora)
DESCASC
Temp. mínima en grados centígrados (hora)
DESCASC
Temp. media en grados centígrados
DESCASC
Racha de viento máxima en m/sg (hora)
DESCASC
Velocidad máxima media en intervalos de 10 minutos(hora)
DESCASC
Precipitaciones diarias en mm
DESCASC
Precipitaciones de 00:00 a 06:00 en mm
DESCASC
Precipitaciones de 06:00 a 12:00 en mm
DESCASC
Precipitaciones de 12:00 a 18:00 en mm
DESCASC
Precipitaciones de 18:00 a 24:00 en mm
DESCASC
17-08-2018 17.3 (16:40) 13 (23:50) 15.1 5.83 (18:50) 1.67 (18:50) 3.2 0.2 2.2 0.8 0
16-08-2018 20.1 (13:10) 14.9 (07:10) 17.5 5.28 (20:10) 1.39 (02:30) 3.4 0 0 0.4 3
15-08-2018 25.5 (17:00) 14.6 (02:40) 20.1 5 (16:30) 1.67 (17:20) 0 0 0 0 0
14-08-2018 20.5 (16:30) 14.7 (07:40) 17.6 6.67 (06:20) 2.22 (06:20) 4.4 2 2.2 0.2 0
13-08-2018 18.2 (14:00) 15 (01:10) 16.6 4.72 (20:40) 1.67 (15:20) 1 0 0.6 0.2 0.2
12-08-2018 31.2 (15:00) 15.7 (00:00) 23.5 13.89 (08:50) 7.5 (09:00) 0 0 0 0 0
11-08-2018 28.3 (17:00) 11.9 (00:00) 20.1 4.17 (18:00) 1.67 (18:00) 0 0 0 0 0
10-08-2018 23.2 (14:40) 11.9 (00:00) 17.6 5.83 (17:40) 2.5 (16:50) 0 0 0 0 0
09-08-2018 19.2 (18:30) 13.2 (00:00) 16.2 10.28 (03:30) 3.89 (03:20) 2.6 2.4 0.2 0 0
08-08-2018 25.2 (16:00) 14.7 (00:00) 20 4.72 (16:30) 1.67 (16:40) 1.8 0.2 0 0 1.6
07-08-2018 21.6 (03:50) 16.2 (00:00) 18.9 7.22 (16:40) 1.67 (04:00) 3 0 0 0.4 2.6
06-08-2018 34.5 (17:30) 17 (00:00) 25.8 6.39 (12:30) 3.33 (12:30) 0 0 0 0 0
05-08-2018 29.3 (17:00) 14.9 (00:00) 22.1 5 (17:10) 2.5 (16:20) 0 0 0 0 0
04-08-2018 28.4 (14:50) 15.4 (05:50) 21.9 5.28 (13:30) 1.94 (16:30) 0 0 0 0 0
03-08-2018 30.9 (14:30) 17.4 (00:00) 24.1 5.28 (19:20) 2.22 (17:20) 0 0 0 0 0
02-08-2018 30 (17:40) 15.8 (00:00) 22.9 3.61 (13:50) 1.39 (13:30) 0 0 0 0 0
01-08-2018 21.5 (14:20) 17.1 (05:50) 19.3 3.89 (15:20) 1.11 (14:50) 1.2 1.2 0 0 0
31-07-2018 23.3 (15:50) 18.5 (00:00) 20.9 4.72 (17:50) 1.67 (14:50) 1 0 0 0 1
30-07-2018 28.1 (17:10) 17.8 (00:00) 22.9 5.83 (18:00) 1.94 (18:00) 0 0 0 0 0
29-07-2018 25.2 (13:20) 14.5 (00:00) 19.9 5.83 (15:50) 1.94 (13:30) 0 0 0 0 0
28-07-2018 21.7 (14:50) 16.6 (00:00) 19.2 5 (17:00) 1.67 (16:00) 3 2 1 0 0
27-07-2018 27.2 (15:30) 17.7 (00:00) 22.5 5 (16:20) 2.22 (17:50) 0 0 0 0 0
26-07-2018 25.9 (13:20) 18.5 (00:00) 22.2 5.28 (14:10) 2.22 (14:30) 0 0 0 0 0
25-07-2018 26.3 (15:30) 18.3 (00:00) 22.3 4.17 (16:10) 1.67 (15:20) 0.2 0 0.2 0 0
24-07-2018 24.9 (15:20) 16.5 (00:00) 20.7 5 (15:00) 2.22 (16:50) 0 0 0 0 0
23-07-2018 28.8 (16:50) 13 (00:00) 20.9 3.61 (09:30) 1.39 (13:50) 0 0 0 0 0
22-07-2018 22.9 (17:30) 12.3 (00:00) 17.6 6.94 (16:20) 2.22 (16:20) 0 0 0 0 0
21-07-2018 20.3 (16:50) 13.6 (00:00) 16.9 3.89 (14:40) 1.67 (11:10) 3.6 3.6 0 0 0
20-07-2018 18.4 (14:10) 14 (00:00) 16.2 6.11 (19:30) 1.39 (19:30) 11.2 3.6 4 0.6 3

Gráficas

Temp. máximas Temp. mínimas Temp. medias Precipitaciones Rachas de viento máximas Velocidades máximas media en intervalos de 10 minutos

Datos horarios

Fecha y hora oficial Temperatura (ºC) Velocidad del viento (km/h) Dirección del viento Racha (km/h) Dirección de racha Precipitación (mm) Presión (hPa) Tendencia (hPa) Humedad (%)
2018-08-18 23:00:00 14.3 0 Calma 5 Sudeste 0 -- -- 96
2018-08-18 22:00:00 15.5 0 Calma 9 Este 0 -- -- 92
2018-08-18 21:00:00 16.9 2 Nordeste 13 Este 0 -- -- 87
2018-08-18 20:00:00 18.1 3 Nordeste 13 Norte 0 -- -- 84
2018-08-18 19:00:00 19.6 3 Este 14 Este 0 -- -- 78
2018-08-18 18:00:00 20.2 4 Nordeste 17 Nordeste 0 -- -- 75
2018-08-18 17:00:00 20.8 4 Norte 14 Noroeste 0 -- -- 72
2018-08-18 16:00:00 19.5 5 Este 17 Sudeste 0 -- -- 76
2018-08-18 15:00:00 20.2 4 Nordeste 24 Nordeste 0 -- -- 70
2018-08-18 14:00:00 18.9 4 Este 18 Este 0 -- -- 75
2018-08-18 13:00:00 18.7 4 Nordeste 16 Nordeste 0 -- -- 75
2018-08-18 12:00:00 17.2 5 Nordeste 14 Nordeste 0 -- -- 77
2018-08-18 11:00:00 16.3 4 Este 13 Este 0 -- -- 85
2018-08-18 10:00:00 14.9 2 Este 9 Norte 0 -- -- 98
2018-08-18 09:00:00 12.8 0 Calma 3 Sur 0 -- -- 100
2018-08-18 08:00:00 11.9 0 Calma 4 Sur 0 -- -- 100
2018-08-18 07:00:00 11.6 2 Sur 5 Sur 0 -- -- 100
2018-08-18 06:00:00 11.3 0 Calma 3 Sudeste 0 -- -- 100
2018-08-18 05:00:00 11.2 0 Calma 4 Sur 0 -- -- 100
2018-08-18 04:00:00 11 0 Calma 3 Sudoeste 0 -- -- 100
2018-08-18 03:00:00 11 0 Calma 4 Sur 0 -- -- 99
2018-08-18 02:00:00 11.6 0 Calma 4 Sur 0 -- -- 98
2018-08-18 01:00:00 12.7 2 Sudoeste 5 Sudoeste 0 -- -- 97
2018-08-18 00:00:00 13 0 Calma 6 Sudoeste 0 -- -- 96
2018-08-17 23:00:00 13.6 0 Calma 6 Sudeste 0 -- -- 94
2018-08-17 22:00:00 14.3 4 Sur 12 Sudeste 0 -- -- 90
2018-08-17 21:00:00 14.7 3 Sur 13 Este 0 -- -- 89
2018-08-17 20:00:00 15.7 3 Sudeste 11 Este 0 -- -- 84
2018-08-17 19:00:00 15.7 6 Este 21 Este 0 -- -- 86
2018-08-17 18:00:00 15.6 3 Sur 15 Este 0 -- -- 87
2018-08-17 17:00:00 16.6 5 Este 15 Noroeste 0 -- -- 84
2018-08-17 16:00:00 15.8 3 Sudeste 15 Nordeste 0 -- -- 94
2018-08-17 15:00:00 15.3 5 Este 15 Este 0.2 -- -- 95
2018-08-17 14:00:00 15.8 4 Este 13 Este 0.4 -- -- 97
2018-08-17 13:00:00 16.4 4 Nordeste 12 Nordeste 0.2 -- -- 94
2018-08-17 12:00:00 16.8 3 Sudeste 16 Sur 0 -- -- 95
2018-08-17 11:00:00 15.8 3 Este 14 Noroeste 0.2 -- -- 100
2018-08-17 10:00:00 15.9 4 Este 12 Norte 0.8 -- -- 100
2018-08-17 09:00:00 15.4 0 Calma 3 Oeste 1.2 -- -- 100
2018-08-17 08:00:00 14.6 0 Calma 4 Oeste 0 -- -- 100
2018-08-17 07:00:00 14.1 0 Calma 3 Oeste 0 -- -- 100
2018-08-17 06:00:00 14.2 0 Calma 5 Oeste 0 -- -- 100
2018-08-17 05:00:00 14.6 0 Calma 4 Oeste 0 -- -- 100
2018-08-17 04:00:00 15.6 0 Calma 3 Sudoeste 0 -- -- 100
2018-08-17 03:00:00 16.1 2 Sudoeste 6 Sudoeste 0 -- -- 100
2018-08-17 02:00:00 16.3 2 Sudoeste 12 Sudeste 0.2 -- -- 99
2018-08-17 01:00:00 16.4 3 Este 9 Este 0 -- -- 100
2018-08-17 00:00:00 16.6 2 Sudeste 8 Sudoeste 1.2 -- -- 99
2018-08-16 23:00:00 17.2 0 Calma 9 Sur 0.2 -- -- 99
2018-08-16 22:00:00 17.5 3 Este 12 Este 0.2 -- -- 99
2018-08-16 21:00:00 17.8 4 Sur 19 Noroeste 0.4 -- -- 99
2018-08-16 20:00:00 18.3 4 Este 10 Este 0 -- -- 99
2018-08-16 19:00:00 18.5 3 Sudeste 9 Este 1 -- -- 98
2018-08-16 18:00:00 18.7 0 Calma 10 Sudeste 0.2 -- -- 97
2018-08-16 17:00:00 18.6 2 Sur 13 Sur 0.2 -- -- 97
2018-08-16 16:00:00 18.9 2 Sur 12 Noroeste 0 -- -- 94
2018-08-16 15:00:00 19.5 3 Este 12 Noroeste 0 -- -- 92
2018-08-16 14:00:00 19.8 4 Noroeste 14 Norte 0 -- -- 89
2018-08-16 13:00:00 20 2 Sudoeste 8 Sudoeste 0 -- -- 89
2018-08-16 12:00:00 19 3 Sur 8 Sur 0 -- -- 94
2018-08-16 11:00:00 17.4 3 Este 7 Nordeste 0 -- -- 100
2018-08-16 10:00:00 16.5 0 Calma 3 Sudoeste 0 -- -- 100
2018-08-16 09:00:00 15.8 0 Calma 3 Sudoeste 0 -- -- 100
2018-08-16 08:00:00 15.1 0 Calma 2 Sudoeste 0 -- -- 100
2018-08-16 07:00:00 15.1 0 Calma 0 Calma 0 -- -- 100
2018-08-16 06:00:00 15.2 0 Calma 4 Oeste 0 -- -- 100
2018-08-16 05:00:00 15.4 0 Calma 3 Sudoeste 0 -- -- 100
2018-08-16 04:00:00 15.8 0 Calma 3 Sudoeste 0 -- -- 99
2018-08-16 03:00:00 16.5 0 Calma 8 Sudoeste 0 -- -- 99
2018-08-16 02:00:00 17 3 Noroeste 6 Noroeste 0 -- -- 98
2018-08-16 01:00:00 17.8 0 Calma 4 Norte 0 -- -- 97
2018-08-16 00:00:00 18.1 0 Calma 2 Norte 0 -- -- 96
2018-08-15 23:00:00 18.2 0 Calma 4 Norte 0 -- -- 96
2018-08-15 22:00:00 18.7 0 Calma 5 Norte 0 -- -- 93
2018-08-15 21:00:00 20 2 Norte 11 Noroeste 0 -- -- 89
2018-08-15 20:00:00 23 2 Norte 11 Norte 0 -- -- 76
2018-08-15 19:00:00 24.6 4 Nordeste 14 Nordeste 0 -- -- 72
2018-08-15 18:00:00 25.2 6 Nordeste 16 Sudeste 0 -- -- 66
2018-08-15 17:00:00 25.5 4 Nordeste 18 Nordeste 0 -- -- 67
2018-08-15 16:00:00 25.1 5 Nordeste 17 Norte 0 -- -- 65
2018-08-15 15:00:00 24.9 5 Norte 14 Este 0 -- -- 62
2018-08-15 14:00:00 24.9 4 Sudeste 13 Sudeste 0 -- -- 65
2018-08-15 13:00:00 23.5 4 Sudeste 12 Sudeste 0 -- -- 67
2018-08-15 12:00:00 22.1 4 Sudeste 10 Nordeste 0 -- -- 69
2018-08-15 11:00:00 19.5 2 Este 10 Este 0 -- -- 77
2018-08-15 10:00:00 17.8 3 Sudeste 7 Sudeste 0 -- -- 83
2018-08-15 09:00:00 15.5 0 Calma 3 Sur 0 -- -- 98
2018-08-15 08:00:00 15 0 Calma 2 Sur 0 -- -- 98
2018-08-15 07:00:00 15.3 0 Calma 3 Sur 0 -- -- 99
2018-08-15 06:00:00 15.3 0 Calma 4 Sur 0 -- -- 99
2018-08-15 05:00:00 15.3 0 Calma 3 Sur 0 -- -- 99
2018-08-15 04:00:00 15 0 Calma 4 Sur 0 -- -- 99
2018-08-15 03:00:00 14.8 0 Calma 2 Sudeste 0 -- -- 99
2018-08-15 02:00:00 14.8 0 Calma 6 Sudeste 0 -- -- 97
2018-08-15 01:00:00 15.2 0 Calma 4 Nordeste 0 -- -- 97
2018-08-15 00:00:00 15.4 0 Calma 6 Este 0 -- -- 94
2018-08-14 23:00:00 16 0 Calma 9 Nordeste 0 -- -- 94
2018-08-14 22:00:00 16.4 2 Sudoeste 16 Este 0 -- -- 91
2018-08-14 21:00:00 17 4 Este 16 Nordeste 0 -- -- 88
2018-08-14 20:00:00 17.7 3 Este 13 Nordeste 0 -- -- 87
2018-08-14 19:00:00 18.8 3 Sudoeste 16 Este 0 -- -- 80
2018-08-14 18:00:00 18.7 4 Sudeste 19 Este 0 -- -- 80
2018-08-14 17:00:00 20.5 7 Sur 23 Este 0 -- -- 76
2018-08-14 16:00:00 20.4 6 Sudeste 18 Oeste 0 -- -- 79
2018-08-14 15:00:00 20.4 5 Este 20 Este 0 -- -- 79
2018-08-14 14:00:00 18.4 4 Sudeste 12 Sur 0 -- -- 88
2018-08-14 13:00:00 17.1 3 Sur 11 Nordeste 0.2 -- -- 94
2018-08-14 12:00:00 17 2 Norte 14 Oeste 0 -- -- 96
2018-08-14 11:00:00 16.7 3 Sudeste 12 Este 0 -- -- 99
2018-08-14 10:00:00 15.8 4 Este 14 Este 0.2 -- -- 100
2018-08-14 09:00:00 15.1 0 Calma 10 Noroeste 0.6 -- -- 99
2018-08-14 08:00:00 14.9 2 Norte 14 Oeste 0.6 -- -- 98
2018-08-14 07:00:00 14.9 3 Oeste 24 Oeste 0.8 -- -- 98
2018-08-14 06:00:00 15.2 0 Calma 6 Sudoeste 0 -- -- 100
2018-08-14 05:00:00 15.1 3 Sudoeste 11 Oeste 0.4 -- -- 100
2018-08-14 04:00:00 15.2 3 Este 9 Este 0.6 -- -- 100
2018-08-14 03:00:00 15.2 0 Calma 15 Este 0 -- -- 99
2018-08-14 02:00:00 15.8 3 Sudoeste 13 Norte 1 -- -- 97
2018-08-14 01:00:00 16 0 Calma 15 Oeste 0 -- -- 95
2018-08-14 00:00:00 16.1 0 Calma 9 Sur 0.2 -- -- 97
2018-08-13 23:00:00 16.7 2 Oeste 8 Noroeste 0 -- -- 93
2018-08-13 22:00:00 16.7 0 Calma 9 Sudeste 0 -- -- 94
2018-08-13 21:00:00 17.1 0 Calma 17 Este 0 -- -- 93
2018-08-13 20:00:00 17.3 2 Sudeste 11 Sudeste 0 -- -- 95
2018-08-13 19:00:00 17.6 3 Este 13 Sudeste 0 -- -- 93
2018-08-13 18:00:00 17.6 5 Este 12 Nordeste 0 -- -- 92
2018-08-13 17:00:00 17.6 2 Sudeste 10 Este 0.2 -- -- 92
2018-08-13 16:00:00 17.6 2 Sudeste 13 Sudeste 0 -- -- 95
2018-08-13 15:00:00 18.2 3 Este 14 Este 0 -- -- 91
2018-08-13 14:00:00 18.2 3 Sudeste 12 Nordeste 0 -- -- 92
2018-08-13 13:00:00 17.5 3 Este 12 Oeste 0 -- -- 91
2018-08-13 12:00:00 17.7 3 Sudeste 11 Este 0.2 -- -- 97
2018-08-13 11:00:00 17.5 4 Sudeste 14 Oeste 0 -- -- 96
2018-08-13 10:00:00 17.4 3 Sur 8 Sudoeste 0.2 -- -- 97
2018-08-13 09:00:00 17.2 0 Calma 2 Este 0.2 -- -- 99
2018-08-13 08:00:00 16.6 0 Calma 3 Este 0 -- -- 99
2018-08-13 07:00:00 16.3 0 Calma 2 Este 0 -- -- 99
2018-08-13 06:00:00 16 0 Calma 4 Sudeste 0 -- -- 99
2018-08-13 05:00:00 15.6 0 Calma 2 Este 0 -- -- 99
2018-08-13 04:00:00 15.5 0 Calma 2 Este 0 -- -- 98
2018-08-13 03:00:00 15.7 0 Calma 2 Este 0 -- -- 97
2018-08-13 02:00:00 15.4 0 Calma 3 Este 0 -- -- 97
2018-08-13 01:00:00 15.2 0 Calma 3 Este 0 -- -- 95
2018-08-13 00:00:00 15.7 0 Calma 4 Este 0 -- -- 92
2018-08-12 23:00:00 16.6 2 Nordeste 5 Nordeste 0 -- -- 88
2018-08-12 22:00:00 17.7 0 Calma 3 Este 0 -- -- 83
2018-08-12 21:00:00 19.6 0 Calma 7 Nordeste 0 -- -- 72
2018-08-12 20:00:00 20.4 2 Este 10 Sur 0 -- -- 68
2018-08-12 19:00:00 20.7 3 Sur 13 Norte 0 -- -- 59
2018-08-12 18:00:00 20.9 5 Nordeste 15 Nordeste 0 -- -- 73
2018-08-12 17:00:00 22.9 6 Noroeste 19 Noroeste 0 -- -- 77
2018-08-12 16:00:00 28 6 Nordeste 20 Este 0 -- -- 69
2018-08-12 15:00:00 31.2 5 Sudoeste 20 Sur 0 -- -- 50
2018-08-12 14:00:00 29.7 9 Sur 24 Sudoeste 0 -- -- 57
2018-08-12 13:00:00 28 12 Sur 30 Sur 0 -- -- 65
2018-08-12 12:00:00 26.5 17 Sudoeste 42 Sudoeste 0 -- -- 68
2018-08-12 11:00:00 24.9 24 Sur 43 Sudoeste 0 -- -- 72
2018-08-12 10:00:00 23.8 21 Sur 43 Sudoeste 0 -- -- 77
2018-08-12 09:00:00 23 27 Sudoeste 50 Sudoeste 0 -- -- 79
2018-08-12 08:00:00 22.9 24 Sur 48 Sur 0 -- -- 78
2018-08-12 07:00:00 20.6 10 Sudoeste 28 Sudoeste 0 -- -- 95
2018-08-12 06:00:00 17.1 0 Calma 4 Norte 0 -- -- 100
2018-08-12 05:00:00 17.3 0 Calma 3 Nordeste 0 -- -- 100
2018-08-12 04:00:00 17.5 0 Calma 0 Calma 0 -- -- 100
2018-08-12 03:00:00 17.7 0 Calma 2 Nordeste 0 -- -- 100
2018-08-12 02:00:00 17.9 0 Calma 2 Nordeste 0 -- -- 99
2018-08-12 01:00:00 18.4 0 Calma 2 Norte 0 -- -- 98
2018-08-12 00:00:00 19 0 Calma 3 Nordeste 0 -- -- 96
2018-08-11 23:00:00 19.9 0 Calma 3 Nordeste 0 -- -- 96
2018-08-11 22:00:00 20.7 0 Calma 4 Norte 0 -- -- 92
2018-08-11 21:00:00 22.3 0 Calma 6 Norte 0 -- -- 86
2018-08-11 20:00:00 25 2 Nordeste 10 Nordeste 0 -- -- 76
2018-08-11 19:00:00 26.5 3 Nordeste 12 Nordeste 0 -- -- 71
2018-08-11 18:00:00 27.3 6 Nordeste 15 Este 0 -- -- 67
2018-08-11 17:00:00 28.3 2 Nordeste 12 Nordeste 0 -- -- 68
2018-08-11 16:00:00 27.8 5 Nordeste 12 Nordeste 0 -- -- 67
2018-08-11 15:00:00 26 3 Nordeste 10 Este 0 -- -- 71
2018-08-11 14:00:00 26 5 Este 13 Nordeste 0 -- -- 70
2018-08-11 13:00:00 25.2 5 Este 13 Nordeste 0 -- -- 70
2018-08-11 12:00:00 22.3 3 Este 14 Nordeste 0 -- -- 74
2018-08-11 11:00:00 19.5 3 Sudoeste 6 Sudoeste 0 -- -- 83
2018-08-11 10:00:00 16.4 0 Calma 4 Este 0 -- -- 100
2018-08-11 09:00:00 13.2 0 Calma 2 Nordeste 0 -- -- 100
2018-08-11 08:00:00 12 0 Calma 3 Nordeste 0 -- -- 100
2018-08-11 07:00:00 12 0 Calma 2 Nordeste 0 -- -- 100
2018-08-11 06:00:00 12.1 0 Calma -- -- 0 -- -- 100
2018-08-11 05:00:00 12.6 0 Calma 2 Nordeste 0 -- -- 100
2018-08-11 04:00:00 12.8 0 Calma 2 Nordeste 0 -- -- 100
2018-08-11 03:00:00 12.9 0 Calma 2 Nordeste 0 -- -- 100
2018-08-11 02:00:00 13.4 0 Calma 2 Nordeste 0 -- -- 99
2018-08-11 01:00:00 13.7 0 Calma 2 Nordeste 0 -- -- 98
2018-08-11 00:00:00 14.4 0 Calma 2 Nordeste 0 -- -- 97
2018-08-10 23:00:00 15.4 0 Calma 4 Nordeste 0 -- -- 94
2018-08-10 22:00:00 16.7 0 Calma 6 Nordeste 0 -- -- 90
2018-08-10 21:00:00 17.9 2 Nordeste 9 Nordeste 0 -- -- 84
2018-08-10 20:00:00 18.6 3 Este 14 Noroeste 0 -- -- 82
2018-08-10 19:00:00 18.9 4 Noroeste 12 Norte 0 -- -- 80
2018-08-10 18:00:00 20.6 3 Nordeste 21 Nordeste 0 -- -- 74
2018-08-10 17:00:00 22.7 5 Nordeste 18 Este 0 -- -- 67
2018-08-10 16:00:00 22.4 4 Norte 15 Noroeste 0 -- -- 67
2018-08-10 15:00:00 22.7 5 Noroeste 15 Nordeste 0 -- -- 65
2018-08-10 14:00:00 22.4 4 Nordeste 12 Este 0 -- -- 66
2018-08-10 13:00:00 21.4 3 Nordeste 10 Este 0 -- -- 63
2018-08-10 12:00:00 20.6 4 Este 13 Este 0 -- -- 59
2018-08-10 11:00:00 17.8 3 Norte 10 Nordeste 0 -- -- 75
2018-08-10 10:00:00 15.8 3 Sudeste 6 Sudeste 0 -- -- 92
2018-08-10 09:00:00 13 0 Calma 2 Este 0 -- -- 100
2018-08-10 08:00:00 12.2 0 Calma 4 Este 0 -- -- 100
2018-08-10 07:00:00 12.5 0 Calma 2 Este 0 -- -- 100
2018-08-10 06:00:00 12.2 0 Calma 3 Este 0 -- -- 100
2018-08-10 05:00:00 12 0 Calma 3 Este 0 -- -- 100
2018-08-10 04:00:00 12.2 0 Calma 4 Nordeste 0 -- -- 99
2018-08-10 03:00:00 12.9 0 Calma 3 Nordeste 0 -- -- 99
2018-08-10 02:00:00 13.2 0 Calma 4 Nordeste 0 -- -- 99
2018-08-10 01:00:00 13.4 0 Calma 3 Nordeste 0 -- -- 98
2018-08-10 00:00:00 13.3 0 Calma 4 Este 0 -- -- 96
2018-08-09 23:00:00 14.4 2 Este 8 Este 0 -- -- 95
2018-08-09 22:00:00 14.9 0 Calma 7 Sur 0 -- -- 92
2018-08-09 21:00:00 15.5 2 Este 13 Este 0 -- -- 90
2018-08-09 20:00:00 15.8 4 Este 18 Este 0 -- -- 86
2018-08-09 19:00:00 17.3 5 Este 21 Nordeste 0 -- -- 82
2018-08-09 18:00:00 18.6 4 Este 22 Nordeste 0 -- -- 76
2018-08-09 17:00:00 17.3 6 Este 18 Este 0 -- -- 79
2018-08-09 16:00:00 17.6 5 Este 17 Este 0 -- -- 81
2018-08-09 15:00:00 17.7 5 Este 18 Oeste 0 -- -- 83
2018-08-09 14:00:00 18.3 4 Norte 19 Norte 0 -- -- 78
2018-08-09 13:00:00 17.9 6 Este 21 Este 0 -- -- 83
2018-08-09 12:00:00 16.1 2 Oeste 12 Noroeste 0.2 -- -- 95
2018-08-09 11:00:00 15.7 3 Oeste 12 Oeste 0 -- -- 90
2018-08-09 10:00:00 15.5 3 Noroeste 11 Sudeste 0 -- -- 91
2018-08-09 09:00:00 14.6 0 Calma 10 Sur 0 -- -- 98
2018-08-09 08:00:00 14.3 3 Sudoeste 13 Noroeste 0 -- -- 94
2018-08-09 07:00:00 14.2 3 Sudoeste 11 Noroeste 0 -- -- 96
2018-08-09 06:00:00 14.3 4 Noroeste 17 Noroeste 0 -- -- 93
2018-08-09 05:00:00 14.3 5 Norte 23 Noroeste 0.4 -- -- 95
2018-08-09 04:00:00 14.7 5 Norte 37 Noroeste 1.4 -- -- 96
2018-08-09 03:00:00 18.1 5 Oeste 13 Nordeste 0.4 -- -- 100
2018-08-09 02:00:00 18 0 Calma 6 Norte 0.2 -- -- 99
2018-08-09 01:00:00 18.2 0 Calma 7 Norte 0 -- -- 98
2018-08-09 00:00:00 18.3 0 Calma 13 Norte 0 -- -- 99
2018-08-08 23:00:00 18.7 0 Calma 5 Nordeste 0.4 -- -- 99
2018-08-08 22:00:00 18.8 4 Nordeste 9 Norte 1.2 -- -- 98
2018-08-08 21:00:00 18.9 2 Norte 13 Noroeste 0 -- -- 96
2018-08-08 20:00:00 19.7 3 Norte 9 Norte 0 -- -- 92
2018-08-08 19:00:00 20.9 3 Nordeste 15 Este 0 -- -- 87
2018-08-08 18:00:00 21.6 4 Nordeste 14 Este 0 -- -- 84
2018-08-08 17:00:00 23.6 5 Nordeste 17 Este 0 -- -- 78
2018-08-08 16:00:00 25.2 5 Este 15 Este 0 -- -- 74
2018-08-08 15:00:00 24.1 5 Noroeste 11 Oeste 0 -- -- 74
2018-08-08 14:00:00 23.2 4 Este 12 Este 0 -- -- 75
2018-08-08 13:00:00 21.3 3 Nordeste 9 Nordeste 0 -- -- 80
2018-08-08 12:00:00 19.9 2 Nordeste 9 Este 0 -- -- 85
2018-08-08 11:00:00 18.4 2 Nordeste 5 Norte 0 -- -- 91
2018-08-08 10:00:00 17.3 2 Nordeste 5 Nordeste 0 -- -- 95
2018-08-08 09:00:00 15.8 0 Calma 0 Calma 0 -- -- 100
2018-08-08 08:00:00 15 0 Calma 2 Este 0 -- -- 100
2018-08-08 07:00:00 14.8 0 Calma 0 Calma 0 -- -- 100
2018-08-08 06:00:00 15.4 0 Calma 2 Este 0 -- -- 100
2018-08-08 05:00:00 15.4 0 Calma 0 Calma 0 -- -- 100
2018-08-08 04:00:00 15.5 0 Calma 3 Este 0 -- -- 100
2018-08-08 03:00:00 15.5 0 Calma 3 Este 0 -- -- 100
2018-08-08 02:00:00 15.7 0 Calma 2 Este 0 -- -- 100
2018-08-08 01:00:00 15.7 0 Calma 7 Norte 0.2 -- -- 100
2018-08-08 00:00:00 16.3 2 Oeste 6 Sudoeste 0.2 -- -- 100
2018-08-07 23:00:00 16.4 3 Oeste 12 Este 0.6 -- -- 100
2018-08-07 22:00:00 16.8 4 Este 10 Sudeste 0.4 -- -- 100
2018-08-07 21:00:00 16.9 0 Calma 10 Este 0.2 -- -- 99
2018-08-07 20:00:00 17.2 3 Norte 10 Este 1 -- -- 98
2018-08-07 19:00:00 17.4 2 Sudeste 16 Este 0.2 -- -- 97
2018-08-07 18:00:00 17.3 3 Este 11 Este 0.2 -- -- 98
2018-08-07 17:00:00 17.3 4 Sudeste 26 Noroeste 0.2 -- -- 96
2018-08-07 16:00:00 18 3 Sudeste 21 Este 0 -- -- 95
2018-08-07 15:00:00 18.8 4 Este 17 Nordeste 0 -- -- 92
2018-08-07 14:00:00 19 4 Este 21 Este 0 -- -- 90
2018-08-07 13:00:00 19 4 Nordeste 13 Nordeste 0 -- -- 91
2018-08-07 12:00:00 19.6 2 Nordeste 15 Este 0 -- -- 92
2018-08-07 11:00:00 20 3 Nordeste 13 Este 0 -- -- 94
2018-08-07 10:00:00 20.4 3 Nordeste 14 Nordeste 0 -- -- 94
2018-08-07 09:00:00 20.4 3 Norte 10 Norte 0 -- -- 96
2018-08-07 08:00:00 20.4 3 Norte 10 Norte 0 -- -- 97
2018-08-07 07:00:00 20.2 0 Calma 11 Oeste 0 -- -- 97
2018-08-07 06:00:00 20.2 0 Calma 11 Oeste 0 -- -- 96
2018-08-07 05:00:00 20.4 3 Oeste 13 Noroeste 0 -- -- 94
2018-08-07 04:00:00 21.3 6 Nordeste 18 Nordeste 0 -- -- 81
2018-08-07 03:00:00 19.1 2 Noroeste 5 Noroeste 0 -- -- 92
2018-08-07 02:00:00 19.9 3 Norte 11 Noroeste 0 -- -- 86
2018-08-07 01:00:00 19.8 3 Norte 6 Norte 0 -- -- 86
2018-08-07 00:00:00 20.8 0 Calma 3 Nordeste 0 -- -- 89
2018-08-06 23:00:00 21.6 0 Calma 4 Nordeste 0 -- -- 87
2018-08-06 22:00:00 23.1 0 Calma 4 Nordeste 0 -- -- 81
2018-08-06 21:00:00 25.4 0 Calma 4 Nordeste 0 -- -- 75
2018-08-06 20:00:00 28.9 0 Calma 3 Nordeste 0 -- -- 66
2018-08-06 19:00:00 31.4 0 Calma 4 Norte 0 -- -- 56
2018-08-06 18:00:00 33.8 2 Norte 8 Norte 0 -- -- 45
2018-08-06 17:00:00 34.3 4 Sur 9 Sur 0 -- -- 43
2018-08-06 16:00:00 33.6 4 Sur 14 Sur 0 -- -- 39
2018-08-06 15:00:00 32.5 6 Sur 18 Sudoeste 0 -- -- 41
2018-08-06 14:00:00 31 10 Sur 23 Sudoeste 0 -- -- 46
2018-08-06 13:00:00 29.6 8 Sur 23 Sudoeste 0 -- -- 50
2018-08-06 12:00:00 28.1 7 Sur 19 Sudoeste 0 -- -- 59
2018-08-06 11:00:00 26.2 10 Sudoeste 20 Sudoeste 0 -- -- 63
2018-08-06 10:00:00 24.4 4 Sudoeste 14 Oeste 0 -- -- 70
2018-08-06 09:00:00 19.1 0 Calma 0 Calma 0 -- -- 100
2018-08-06 08:00:00 17.8 0 Calma 0 Calma 0 -- -- 100
2018-08-06 07:00:00 17.5 0 Calma -- -- 0 -- -- 100
2018-08-06 06:00:00 17.3 0 Calma -- -- 0 -- -- 100
2018-08-06 05:00:00 17.2 0 Calma -- -- 0 -- -- 100
2018-08-06 04:00:00 17.1 0 Calma -- -- 0 -- -- 99
2018-08-06 03:00:00 17.2 0 Calma -- -- 0 -- -- 98
2018-08-06 02:00:00 17.7 0 Calma -- -- 0 -- -- 98
2018-08-06 01:00:00 18.1 0 Calma -- -- 0 -- -- 96
2018-08-06 00:00:00 18.8 0 Calma 0 Calma 0 -- -- 95
2018-08-05 23:00:00 19.6 0 Calma -- -- 0 -- -- 93
2018-08-05 22:00:00 21.1 0 Calma 2 Norte 0 -- -- 87
2018-08-05 21:00:00 23 0 Calma 4 Norte 0 -- -- 80
2018-08-05 20:00:00 26.4 0 Calma 11 Noroeste 0 -- -- 67
2018-08-05 19:00:00 27.9 4 Noroeste 12 Noroeste 0 -- -- 62
2018-08-05 18:00:00 28.5 4 Noroeste 18 Oeste 0 -- -- 65
2018-08-05 17:00:00 29.3 3 Noroeste 16 Noroeste 0 -- -- 59
2018-08-05 16:00:00 28.9 3 Nordeste 16 Noroeste 0 -- -- 64
2018-08-05 15:00:00 28.2 5 Noroeste 12 Noroeste 0 -- -- 66
2018-08-05 14:00:00 28.1 3 Este 15 Nordeste 0 -- -- 64
2018-08-05 13:00:00 27.1 4 Nordeste 14 Nordeste 0 -- -- 65
2018-08-05 12:00:00 25.4 5 Sudoeste 13 Sudeste 0 -- -- 69
2018-08-05 11:00:00 23.6 3 Este 7 Nordeste 0 -- -- 75
2018-08-05 10:00:00 19.8 0 Calma 3 Noroeste 0 -- -- 92
2018-08-05 09:00:00 16.4 0 Calma -- -- 0 -- -- 100
2018-08-05 08:00:00 15.3 0 Calma -- -- 0 -- -- 100
2018-08-05 07:00:00 15.1 0 Calma -- -- 0 -- -- 100
2018-08-05 06:00:00 15.1 0 Calma 0 Calma 0 -- -- 100
2018-08-05 05:00:00 15.1 0 Calma -- -- 0 -- -- 99
2018-08-05 04:00:00 15.3 0 Calma 2 Noroeste 0 -- -- 99
2018-08-05 03:00:00 15.6 0 Calma 2 Noroeste 0 -- -- 98
2018-08-05 02:00:00 16 0 Calma 2 Noroeste 0 -- -- 97
2018-08-05 01:00:00 16.4 0 Calma 2 Norte 0 -- -- 95
2018-08-05 00:00:00 17 0 Calma 3 Norte 0 -- -- 93
2018-08-04 23:00:00 18 0 Calma 3 Norte 0 -- -- 90
2018-08-04 22:00:00 19.5 0 Calma 3 Norte 0 -- -- 83
2018-08-04 21:00:00 22 0 Calma 6 Norte 0 -- -- 74
2018-08-04 20:00:00 25 3 Norte 8 Nordeste 0 -- -- 64
2018-08-04 19:00:00 25.5 4 Nordeste 17 Nordeste 0 -- -- 62
2018-08-04 18:00:00 26.3 4 Este 18 Este 0 -- -- 58
2018-08-04 17:00:00 27 5 Norte 18 Este 0 -- -- 60
2018-08-04 16:00:00 27.7 4 Sudeste 17 Nordeste 0 -- -- 59
2018-08-04 15:00:00 28.3 4 Oeste 17 Nordeste 0 -- -- 60
2018-08-04 14:00:00 28.2 5 Norte 19 Nordeste 0 -- -- 55
2018-08-04 13:00:00 27.7 5 Noroeste 15 Este 0 -- -- 54
2018-08-04 12:00:00 26.6 3 Este 10 Este 0 -- -- 62
2018-08-04 11:00:00 24.5 3 Este 7 Este 0 -- -- 67
2018-08-04 10:00:00 20.8 0 Calma -- -- 0 -- -- 86
2018-08-04 09:00:00 17 0 Calma -- -- 0 -- -- 97
2018-08-04 08:00:00 15.7 0 Calma -- -- 0 -- -- 99
2018-08-04 07:00:00 15.5 0 Calma -- -- 0 -- -- 98
2018-08-04 06:00:00 15.5 0 Calma -- -- 0 -- -- 97
2018-08-04 05:00:00 15.7 0 Calma -- -- 0 -- -- 96
2018-08-04 04:00:00 15.9 0 Calma -- -- 0 -- -- 95
2018-08-04 03:00:00 16.4 0 Calma -- -- 0 -- -- 95
2018-08-04 02:00:00 16.8 0 Calma -- -- 0 -- -- 94
2018-08-04 01:00:00 17.4 0 Calma -- -- 0 -- -- 93
2018-08-04 00:00:00 18.3 0 Calma 4 Oeste 0 -- -- 92
2018-08-03 23:00:00 19.3 0 Calma 0 Calma 0 -- -- 87
2018-08-03 22:00:00 21.1 0 Calma 3 Oeste 0 -- -- 81
2018-08-03 21:00:00 23.6 3 Noroeste 11 Noroeste 0 -- -- 72
2018-08-03 20:00:00 27.6 4 Noroeste 19 Noroeste 0 -- -- 55
2018-08-03 19:00:00 29 4 Oeste 12 Sudoeste 0 -- -- 52
2018-08-03 18:00:00 29.7 4 Noroeste 17 Oeste 0 -- -- 53
2018-08-03 17:00:00 30 7 Oeste 15 Oeste 0 -- -- 56
2018-08-03 16:00:00 30.7 4 Sudoeste 13 Noroeste 0 -- -- 57
2018-08-03 15:00:00 30.8 6 Este 14 Nordeste 0 -- -- 53
2018-08-03 14:00:00 30.4 5 Este 16 Nordeste 0 -- -- 49
2018-08-03 13:00:00 30.2 4 Nordeste 14 Sudeste 0 -- -- 55
2018-08-03 12:00:00 28.6 2 Sudeste 10 Nordeste 0 -- -- 66
2018-08-03 11:00:00 26.1 3 Sudoeste 6 Sudoeste 0 -- -- 82
2018-08-03 10:00:00 21.9 0 Calma 3 Sudoeste 0 -- -- 99
2018-08-03 09:00:00 18.8 0 Calma -- -- 0 -- -- 100
2018-08-03 08:00:00 17.6 0 Calma -- -- 0 -- -- 100
2018-08-03 07:00:00 17.6 0 Calma -- -- 0 -- -- 100
2018-08-03 06:00:00 18 0 Calma -- -- 0 -- -- 100
2018-08-03 05:00:00 18.9 0 Calma -- -- 0 -- -- 100
2018-08-03 04:00:00 19.7 0 Calma -- -- 0 -- -- 100
2018-08-03 03:00:00 19.9 0 Calma -- -- 0 -- -- 100
2018-08-03 02:00:00 19.9 0 Calma -- -- 0 -- -- 99
2018-08-03 01:00:00 20.2 0 Calma -- -- 0 -- -- 98
2018-08-03 00:00:00 20.8 0 Calma -- -- 0 -- -- 97
2018-08-02 23:00:00 21.5 0 Calma -- -- 0 -- -- 95
2018-08-02 22:00:00 23 0 Calma 8 Norte 0 -- -- 91
2018-08-02 21:00:00 24.8 3 Norte 8 Norte 0 -- -- 84
2018-08-02 20:00:00 28.2 2 Nordeste 11 Nordeste 0 -- -- 75
2018-08-02 19:00:00 29.5 3 Nordeste 10 Norte 0 -- -- 70
2018-08-02 18:00:00 29.9 4 Norte 11 Este 0 -- -- 71
2018-08-02 17:00:00 29.9 5 Norte 12 Norte 0 -- -- 70
2018-08-02 16:00:00 29.5 3 Nordeste 12 Noroeste 0 -- -- 66
2018-08-02 15:00:00 28.9 5 Norte 13 Nordeste 0 -- -- 67
2018-08-02 14:00:00 28.4 4 Nordeste 13 Nordeste 0 -- -- 72
2018-08-02 13:00:00 27.4 3 Nordeste 12 Nordeste 0 -- -- 70
2018-08-02 12:00:00 25.7 3 Nordeste 10 Este 0 -- -- 75
2018-08-02 11:00:00 22.9 3 Sudoeste 6 Sudoeste 0 -- -- 84
2018-08-02 10:00:00 20.2 2 Sudoeste 5 Sudoeste 0 -- -- 92
2018-08-02 09:00:00 17.2 2 Sudoeste 3 Sudoeste 0 -- -- 100
2018-08-02 08:00:00 16.4 0 Calma 2 Sudoeste 0 -- -- 100
2018-08-02 07:00:00 16 0 Calma -- -- 0 -- -- 100
2018-08-02 06:00:00 16 0 Calma 2 Sudoeste 0 -- -- 100
2018-08-02 05:00:00 16.7 0 Calma -- -- 0 -- -- 99
2018-08-02 04:00:00 17 0 Calma 2 Sudoeste 0 -- -- 99
2018-08-02 03:00:00 17 0 Calma 2 Sudoeste 0 -- -- 98
2018-08-02 02:00:00 17.5 0 Calma 3 Sudoeste 0 -- -- 97
2018-08-02 01:00:00 17.6 0 Calma -- -- 0 -- -- 97
2018-08-02 00:00:00 17.7 0 Calma 3 Sudoeste 0 -- -- 96
2018-08-01 23:00:00 17.7 0 Calma 4 Sudoeste 0 -- -- 95
2018-08-01 22:00:00 17.8 0 Calma 8 Sudoeste 0 -- -- 94
2018-08-01 21:00:00 18.2 2 Oeste 7 Noroeste 0 -- -- 90
2018-08-01 20:00:00 18.8 0 Calma 7 Noroeste 0 -- -- 89
2018-08-01 19:00:00 19.4 3 Noroeste 13 Este 0 -- -- 88
2018-08-01 18:00:00 20.6 2 Nordeste 8 Nordeste 0 -- -- 86
2018-08-01 17:00:00 20.8 3 Nordeste 11 Este 0 -- -- 85
2018-08-01 16:00:00 20.4 2 Oeste 14 Noroeste 0 -- -- 85
2018-08-01 15:00:00 21 4 Norte 13 Nordeste 0 -- -- 84
2018-08-01 14:00:00 21 2 Nordeste 9 Nordeste 0 -- -- 87
2018-08-01 13:00:00 19.5 3 Norte 9 Nordeste 0 -- -- 88
2018-08-01 12:00:00 19.5 2 Nordeste 8 Nordeste 0 -- -- 88
2018-08-01 11:00:00 18.5 2 Nordeste 8 Nordeste 0 -- -- 92
2018-08-01 10:00:00 17.4 0 Calma 9 Nordeste 0 -- -- 98
2018-08-01 09:00:00 17.2 0 Calma 6 Este 0 -- -- 100
2018-08-01 08:00:00 17.2 0 Calma 4 Este 0 -- -- 100
2018-08-01 07:00:00 17.2 0 Calma 5 Sudeste 0 -- -- 100
2018-08-01 06:00:00 17.2 2 Este 8 Este 0.2 -- -- 100
2018-08-01 05:00:00 17.4 2 Nordeste 9 Nordeste 0 -- -- 100
2018-08-01 04:00:00 17.7 0 Calma 4 Nordeste 0 -- -- 100
2018-08-01 03:00:00 17.8 2 Nordeste 5 Este 0.4 -- -- 100
2018-08-01 02:00:00 17.9 0 Calma 11 Nordeste 0.4 -- -- 100
2018-08-01 01:00:00 18 2 Nordeste 12 Nordeste 0.2 -- -- 99
2018-08-01 00:00:00 18.6 4 Este 12 Este 0.4 -- -- 99
2018-07-31 23:00:00 18.9 2 Nordeste 8 Norte 0.2 -- -- 99
2018-07-31 22:00:00 19.1 2 Este 7 Este 0.4 -- -- 98
2018-07-31 21:00:00 19.3 2 Norte 13 Oeste 0 -- -- 92
2018-07-31 20:00:00 19.9 3 Noroeste 10 Norte 0 -- -- 91
2018-07-31 19:00:00 20.7 3 Norte 14 Noroeste 0 -- -- 88
2018-07-31 18:00:00 22.1 4 Nordeste 17 Nordeste 0 -- -- 82
2018-07-31 17:00:00 23.1 6 Nordeste 16 Este 0 -- -- 78
2018-07-31 16:00:00 23.1 4 Este 16 Este 0 -- -- 78
2018-07-31 15:00:00 21.5 5 Nordeste 15 Noroeste 0 -- -- 85
2018-07-31 14:00:00 22.3 3 Este 15 Nordeste 0 -- -- 86
2018-07-31 13:00:00 21.3 3 Noroeste 9 Norte 0 -- -- 87
2018-07-31 12:00:00 21.3 3 Nordeste 12 Norte 0 -- -- 86
2018-07-31 11:00:00 21.7 3 Norte 9 Noroeste 0 -- -- 86
2018-07-31 10:00:00 20.7 0 Calma 5 Noroeste 0 -- -- 90
2018-07-31 09:00:00 19.3 0 Calma 3 Noroeste 0 -- -- 96
2018-07-31 08:00:00 18.7 0 Calma 4 Noroeste 0 -- -- 98
2018-07-31 07:00:00 18.6 0 Calma 4 Noroeste 0 -- -- 97
2018-07-31 06:00:00 18.7 0 Calma 4 Norte 0 -- -- 98
2018-07-31 05:00:00 18.7 0 Calma 4 Norte 0 -- -- 98
2018-07-31 04:00:00 18.9 3 Noroeste 8 Oeste 0 -- -- 98
2018-07-31 03:00:00 19.1 3 Noroeste 8 Noroeste 0 -- -- 97
2018-07-31 02:00:00 19.4 0 Calma 3 Nordeste 0 -- -- 95
2018-07-31 01:00:00 19.4 0 Calma 6 Noroeste 0 -- -- 94
2018-07-31 00:00:00 19.6 3 Norte 7 Noroeste 0 -- -- 94
2018-07-30 23:00:00 19.8 2 Norte 11 Nordeste 0 -- -- 94
2018-07-30 22:00:00 20.7 0 Calma 7 Norte 0 -- -- 89
2018-07-30 21:00:00 22.1 2 Este 9 Noroeste 0 -- -- 85
2018-07-30 20:00:00 24 5 Noroeste 13 Nordeste 0 -- -- 79
2018-07-30 19:00:00 26.2 3 Norte 12 Noroeste 0 -- -- 72
2018-07-30 18:00:00 26.9 7 Noroeste 21 Noroeste 0 -- -- 70
2018-07-30 17:00:00 28 3 Norte 14 Nordeste 0 -- -- 68
2018-07-30 16:00:00 27.9 4 Este 12 Este 0 -- -- 64
2018-07-30 15:00:00 27.1 4 Nordeste 12 Este 0 -- -- 64
2018-07-30 14:00:00 26.5 4 Este 14 Este 0 -- -- 67
2018-07-30 13:00:00 25 3 Este 14 Este 0 -- -- 69
2018-07-30 12:00:00 23.7 5 Este 11 Nordeste 0 -- -- 78
2018-07-30 11:00:00 21.2 4 Sudoeste 10 Sur 0 -- -- 80
2018-07-30 10:00:00 19.8 3 Sur 10 Sudoeste 0 -- -- 85
2018-07-30 09:00:00 18.6 0 Calma 4 Nordeste 0 -- -- 97
2018-07-30 08:00:00 17.9 0 Calma 5 Este 0 -- -- 99
2018-07-30 07:00:00 17.9 0 Calma 2 Norte 0 -- -- 100
2018-07-30 06:00:00 17.9 0 Calma 2 Norte 0 -- -- 100
2018-07-30 05:00:00 18 0 Calma 3 Norte 0 -- -- 100
2018-07-30 04:00:00 18.1 0 Calma 2 Norte 0 -- -- 99
2018-07-30 03:00:00 18 0 Calma 2 Norte 0 -- -- 98
2018-07-30 02:00:00 18.1 0 Calma 3 Norte 0 -- -- 98
2018-07-30 01:00:00 18.2 0 Calma 4 Noroeste 0 -- -- 97
2018-07-30 00:00:00 18.3 0 Calma 5 Norte 0 -- -- 96
2018-07-29 23:00:00 18.4 0 Calma 9 Este 0 -- -- 95
2018-07-29 22:00:00 18.7 0 Calma 10 Norte 0 -- -- 95
2018-07-29 21:00:00 19.2 0 Calma 5 Nordeste 0 -- -- 95
2018-07-29 20:00:00 19.6 0 Calma 13 Este 0 -- -- 92
2018-07-29 19:00:00 20.3 4 Nordeste 14 Nordeste 0 -- -- 89
2018-07-29 18:00:00 20.6 4 Norte 14 Este 0 -- -- 88
2018-07-29 17:00:00 21.2 5 Nordeste 17 Este 0 -- -- 85
2018-07-29 16:00:00 23.2 6 Nordeste 21 Nordeste 0 -- -- 78
2018-07-29 15:00:00 24.7 6 Nordeste 18 Nordeste 0 -- -- 73
2018-07-29 14:00:00 25.1 5 Noroeste 19 Norte 0 -- -- 78
2018-07-29 13:00:00 24.9 3 Este 12 Nordeste 0 -- -- 77
2018-07-29 12:00:00 22.4 4 Este 12 Este 0 -- -- 83
2018-07-29 11:00:00 19.5 3 Este 10 Este 0 -- -- 91
2018-07-29 10:00:00 17.9 3 Este 6 Este 0 -- -- 99
2018-07-29 09:00:00 16.1 0 Calma 4 Este 0 -- -- 100
2018-07-29 08:00:00 15.5 0 Calma 4 Nordeste 0 -- -- 100
2018-07-29 07:00:00 14.8 0 Calma 3 Nordeste 0 -- -- 100
2018-07-29 06:00:00 14.8 0 Calma 2 Nordeste 0 -- -- 100
2018-07-29 05:00:00 15.6 0 Calma 6 Este 0 -- -- 99
2018-07-29 04:00:00 16.6 0 Calma 3 Nordeste 0 -- -- 100
2018-07-29 03:00:00 16.7 0 Calma 2 Nordeste 0 -- -- 100
2018-07-29 02:00:00 16.7 0 Calma 2 Nordeste 0 -- -- 100
2018-07-29 01:00:00 16.7 0 Calma 2 Nordeste 0 -- -- 99
2018-07-29 00:00:00 16.7 0 Calma 4 Nordeste 0 -- -- 98
2018-07-28 23:00:00 17.3 0 Calma 2 Nordeste 0 -- -- 95
2018-07-28 22:00:00 18.4 0 Calma 4 Este 0 -- -- 93
2018-07-28 21:00:00 19.2 0 Calma 6 Nordeste 0 -- -- 88
2018-07-28 20:00:00 19.9 3 Nordeste 8 Este 0 -- -- 84
2018-07-28 19:00:00 20.7 4 Nordeste 13 Nordeste 0 -- -- 82
2018-07-28 18:00:00 20.7 3 Nordeste 15 Nordeste 0 -- -- 81
2018-07-28 17:00:00 20.8 6 Este 18 Nordeste 0 -- -- 82
2018-07-28 16:00:00 21 6 Este 17 Nordeste 0 -- -- 84
2018-07-28 15:00:00 21.2 5 Nordeste 14 Nordeste 0 -- -- 81
2018-07-28 14:00:00 19 4 Este 8 Nordeste 0 -- -- 90
2018-07-28 13:00:00 18.4 0 Calma 8 Norte 0 -- -- 91
2018-07-28 12:00:00 17.4 3 Nordeste 11 Nordeste 0.8 -- -- 94
2018-07-28 11:00:00 18 0 Calma 4 Noroeste 0 -- -- 99
2018-07-28 10:00:00 17.6 0 Calma 4 Sudoeste 0 -- -- 98
2018-07-28 09:00:00 17.2 0 Calma 4 Sudoeste 0 -- -- 100
2018-07-28 08:00:00 16.9 0 Calma 4 Sudoeste 0 -- -- 100
2018-07-28 07:00:00 16.7 0 Calma 6 Sudoeste 0.2 -- -- 100
2018-07-28 06:00:00 16.9 0 Calma 12 Noroeste 0.2 -- -- 99
2018-07-28 05:00:00 17.4 2 Oeste 12 Oeste 0.4 -- -- 100
2018-07-28 04:00:00 18 2 Nordeste 8 Nordeste 0.4 -- -- 100
2018-07-28 03:00:00 18.2 0 Calma 6 Sudoeste 0.4 -- -- 99
2018-07-28 02:00:00 18.4 3 Sur 12 Este 0.2 -- -- 98
2018-07-28 01:00:00 19 0 Calma 4 Noroeste 0.4 -- -- 98
2018-07-28 00:00:00 19.2 3 Noroeste 7 Oeste 0 -- -- 95
2018-07-27 23:00:00 19.5 0 Calma 7 Sudeste 0 -- -- 93
2018-07-27 22:00:00 19.8 0 Calma 9 Noroeste 0 -- -- 91
2018-07-27 21:00:00 20.2 2 Norte 8 Norte 0 -- -- 88
2018-07-27 20:00:00 20.6 3 Norte 17 Nordeste 0 -- -- 85
2018-07-27 19:00:00 21.5 5 Norte 15 Noroeste 0 -- -- 84
2018-07-27 18:00:00 22.7 5 Noroeste 16 Noroeste 0 -- -- 85
2018-07-27 17:00:00 25.8 4 Nordeste 18 Norte 0 -- -- 78
2018-07-27 16:00:00 26.8 3 Nordeste 12 Nordeste 0 -- -- 76
2018-07-27 15:00:00 26.6 4 Este 13 Nordeste 0 -- -- 74
2018-07-27 14:00:00 25 4 Norte 15 Este 0 -- -- 74
2018-07-27 13:00:00 24 3 Este 9 Nordeste 0 -- -- 79
2018-07-27 12:00:00 23.4 4 Este 9 Este 0 -- -- 82
2018-07-27 11:00:00 20.9 2 Nordeste 7 Este 0 -- -- 84
2018-07-27 10:00:00 20.5 2 Sudeste 7 Este 0 -- -- 88
2018-07-27 09:00:00 19 4 Este 9 Este 0 -- -- 91
2018-07-27 08:00:00 17.9 0 Calma 3 Norte 0 -- -- 98
2018-07-27 07:00:00 17.9 0 Calma 4 Norte 0 -- -- 97
2018-07-27 06:00:00 18 2 Norte 5 Nordeste 0 -- -- 97
2018-07-27 05:00:00 18.2 0 Calma 2 Norte 0 -- -- 97
2018-07-27 04:00:00 18.3 0 Calma 6 Norte 0 -- -- 97
2018-07-27 03:00:00 18.4 0 Calma 2 Nordeste 0 -- -- 96
2018-07-27 02:00:00 18.5 0 Calma 4 Nordeste 0 -- -- 95
2018-07-27 01:00:00 18.6 0 Calma 5 Norte 0 -- -- 95
2018-07-27 00:00:00 18.8 2 Norte 12 Norte 0 -- -- 92
2018-07-26 23:00:00 19.2 2 Oeste 8 Noroeste 0 -- -- 91
2018-07-26 22:00:00 19.6 0 Calma 6 Noroeste 0 -- -- 93
2018-07-26 21:00:00 19.9 4 Noroeste 11 Noroeste 0 -- -- 88
2018-07-26 20:00:00 20.5 3 Nordeste 15 Noroeste 0 -- -- 88
2018-07-26 19:00:00 21 2 Oeste 14 Oeste 0 -- -- 87
2018-07-26 18:00:00 21.7 3 Norte 17 Nordeste 0 -- -- 86
2018-07-26 17:00:00 22.2 4 Noroeste 13 Oeste 0 -- -- 83
2018-07-26 16:00:00 22.9 3 Nordeste 17 Este 0 -- -- 80
2018-07-26 15:00:00 24 7 Este 19 Este 0 -- -- 78
2018-07-26 14:00:00 25.9 5 Nordeste 17 Nordeste 0 -- -- 73
2018-07-26 13:00:00 25.8 4 Nordeste 16 Nordeste 0 -- -- 75
2018-07-26 12:00:00 24.6 5 Este 13 Nordeste 0 -- -- 75
2018-07-26 11:00:00 23.2 3 Nordeste 11 Sudeste 0 -- -- 82
2018-07-26 10:00:00 20.7 3 Nordeste 6 Nordeste 0 -- -- 91
2018-07-26 09:00:00 19.1 0 Calma 5 Nordeste 0 -- -- 96
2018-07-26 08:00:00 18.6 2 Norte 4 Norte 0 -- -- 98
2018-07-26 07:00:00 18.6 0 Calma 4 Norte 0 -- -- 99
2018-07-26 06:00:00 18.7 0 Calma 2 Norte 0 -- -- 99
2018-07-26 05:00:00 18.8 0 Calma 4 Norte 0 -- -- 98
2018-07-26 04:00:00 19 0 Calma 4 Nordeste 0 -- -- 98
2018-07-26 03:00:00 19 0 Calma 4 Noroeste 0 -- -- 98
2018-07-26 02:00:00 19.1 0 Calma 7 Nordeste 0 -- -- 98
2018-07-26 01:00:00 19.2 0 Calma 5 Norte 0 -- -- 97
2018-07-26 00:00:00 19.3 3 Norte 6 Norte 0 -- -- 98
2018-07-25 23:00:00 19.6 0 Calma 6 Norte 0 -- -- 97
2018-07-25 22:00:00 20 2 Norte 8 Norte 0 -- -- 95
2018-07-25 21:00:00 20.7 3 Noroeste 11 Noroeste 0 -- -- 92
2018-07-25 20:00:00 22.5 4 Norte 14 Noroeste 0 -- -- 87
2018-07-25 19:00:00 23.4 5 Norte 14 Norte 0 -- -- 85
2018-07-25 18:00:00 23.9 4 Nordeste 14 Nordeste 0 -- -- 83
2018-07-25 17:00:00 25.3 4 Nordeste 15 Nordeste 0 -- -- 76
2018-07-25 16:00:00 25.8 5 Este 14 Nordeste 0 -- -- 76
2018-07-25 15:00:00 25.9 3 Nordeste 13 Nordeste 0 -- -- 72
2018-07-25 14:00:00 24.8 4 Nordeste 12 Este 0 -- -- 77
2018-07-25 13:00:00 22.9 2 Nordeste 8 Nordeste 0 -- -- 81
2018-07-25 12:00:00 21.3 0 Calma 6 Nordeste 0 -- -- 88
2018-07-25 11:00:00 20.1 3 Nordeste 7 Nordeste 0 -- -- 94
2018-07-25 10:00:00 19.1 2 Nordeste 6 Nordeste 0 -- -- 99
2018-07-25 09:00:00 18.7 0 Calma 4 Nordeste 0.2 -- -- 100
2018-07-25 08:00:00 18.5 0 Calma 5 Este 0 -- -- 99
2018-07-25 07:00:00 18.5 0 Calma 6 Nordeste 0 -- -- 99
2018-07-25 06:00:00 18.5 0 Calma 6 Nordeste 0 -- -- 99
2018-07-25 05:00:00 18.6 0 Calma 4 Norte 0 -- -- 99
2018-07-25 04:00:00 18.5 0 Calma 3 Norte 0 -- -- 98
2018-07-25 03:00:00 18.4 0 Calma 5 Noroeste 0 -- -- 98
2018-07-25 02:00:00 18.5 0 Calma 6 Nordeste 0 -- -- 98
2018-07-25 01:00:00 18.6 0 Calma 4 Nordeste 0 -- -- 97
2018-07-25 00:00:00 18.7 0 Calma 4 Nordeste 0 -- -- 95
2018-07-24 23:00:00 19.1 0 Calma 12 Noroeste 0 -- -- 92
2018-07-24 22:00:00 19.7 2 Noroeste 12 Norte 0 -- -- 90
2018-07-24 21:00:00 20.7 0 Calma 8 Este 0 -- -- 88
2018-07-24 20:00:00 21.5 4 Norte 13 Este 0 -- -- 84
2018-07-24 19:00:00 22.7 2 Este 12 Noroeste 0 -- -- 80
2018-07-24 18:00:00 23.1 4 Norte 10 Norte 0 -- -- 83
2018-07-24 17:00:00 23.3 6 Noroeste 15 Noroeste 0 -- -- 80
2018-07-24 16:00:00 24.4 5 Norte 13 Noroeste 0 -- -- 76
2018-07-24 15:00:00 24.1 6 Este 18 Nordeste 0 -- -- 78
2018-07-24 14:00:00 23.9 5 Norte 15 Norte 0 -- -- 78
2018-07-24 13:00:00 23.3 6 Noroeste 15 Este 0 -- -- 78
2018-07-24 12:00:00 24.4 3 Nordeste 13 Este 0 -- -- 77
2018-07-24 11:00:00 22.9 5 Este 12 Nordeste 0 -- -- 80
2018-07-24 10:00:00 20.5 3 Norte 7 Norte 0 -- -- 100
2018-07-24 09:00:00 17.8 0 Calma 2 Norte 0 -- -- 100
2018-07-24 08:00:00 16.8 0 Calma 2 Norte 0 -- -- 100
2018-07-24 07:00:00 16.7 0 Calma 2 Norte 0 -- -- 100
2018-07-24 06:00:00 16.9 0 Calma 2 Norte 0 -- -- 100
2018-07-24 05:00:00 17.2 0 Calma 3 Noroeste 0 -- -- 100
2018-07-24 04:00:00 17.5 0 Calma 3 Norte 0 -- -- 100
2018-07-24 03:00:00 17.6 0 Calma 3 Noroeste 0 -- -- 99
2018-07-24 02:00:00 18.1 0 Calma -- -- 0 -- -- 98
2018-07-24 01:00:00 18.7 0 Calma 0 Calma 0 -- -- 97
2018-07-24 00:00:00 19.4 0 Calma 0 Calma 0 -- -- 97
2018-07-23 23:00:00 -- 0 Calma 3 Norte 0 -- -- --
2018-07-23 22:00:00 21.8 0 Calma 6 Norte 0 -- -- 91
2018-07-23 21:00:00 23.7 3 Norte 7 Noroeste 0 -- -- 83
2018-07-23 20:00:00 27.3 2 Nordeste 8 Nordeste 0 -- -- 70
2018-07-23 19:00:00 28.1 3 Nordeste 9 Este 0 -- -- 68
2018-07-23 18:00:00 28.4 4 Nordeste 13 Nordeste 0 -- -- 66
2018-07-23 17:00:00 28.7 4 Nordeste 11 Este 0 -- -- 65
2018-07-23 16:00:00 28.4 4 Este 10 Nordeste 0 -- -- 57
2018-07-23 15:00:00 27.7 4 Norte 9 Noroeste 0 -- -- 59
2018-07-23 14:00:00 26.6 3 Nordeste 10 Este 0 -- -- 55
2018-07-23 13:00:00 24.9 3 Sudoeste 7 Este 0 -- -- 59
2018-07-23 12:00:00 23.8 2 Noroeste 9 Sudeste 0 -- -- 68
2018-07-23 11:00:00 22.4 3 Sudeste 9 Sudeste 0 -- -- 74
2018-07-23 10:00:00 20 3 Este 13 Este 0 -- -- 84
2018-07-23 09:00:00 15.4 2 Norte 9 Nordeste 0 -- -- 100
2018-07-23 08:00:00 13.3 0 Calma 3 Noroeste 0 -- -- 100
2018-07-23 07:00:00 13.3 0 Calma 3 Noroeste 0 -- -- 100
2018-07-23 06:00:00 13.9 0 Calma 2 Oeste 0 -- -- 100
2018-07-23 05:00:00 13.9 0 Calma 0 Calma 0 -- -- 100
2018-07-23 04:00:00 14.3 0 Calma 3 Oeste 0 -- -- 100
2018-07-23 03:00:00 13.8 0 Calma 2 Oeste 0 -- -- 100
2018-07-23 02:00:00 14 0 Calma 3 Oeste 0 -- -- 100
2018-07-23 01:00:00 14.2 0 Calma 3 Noroeste 0 -- -- 99
2018-07-23 00:00:00 14.8 0 Calma 3 Noroeste 0 -- -- 97
2018-07-22 23:00:00 15.6 0 Calma 4 Noroeste 0 -- -- 95
2018-07-22 22:00:00 17.2 0 Calma 6 Oeste 0 -- -- 91
2018-07-22 21:00:00 18.7 0 Calma 8 Sudeste 0 -- -- 84
2018-07-22 20:00:00 21.3 3 Norte 11 Oeste 0 -- -- 73
2018-07-22 19:00:00 21.2 3 Sudoeste 14 Noroeste 0 -- -- 72
2018-07-22 18:00:00 21.9 4 Noroeste 18 Nordeste 0 -- -- 72
2018-07-22 17:00:00 22.5 5 Este 25 Nordeste 0 -- -- 76
2018-07-22 16:00:00 22.6 6 Este 16 Oeste 0 -- -- 72
2018-07-22 15:00:00 21.3 5 Noroeste 14 Norte 0 -- -- 72
2018-07-22 14:00:00 22 5 Este 17 Nordeste 0 -- -- 71
2018-07-22 13:00:00 21.5 3 Este 10 Nordeste 0 -- -- 70
2018-07-22 12:00:00 21.1 5 Este 11 Sudeste 0 -- -- 67
2018-07-22 11:00:00 20.2 4 Nordeste 15 Este 0 -- -- 71
2018-07-22 10:00:00 17.6 3 Este 7 Sudeste 0 -- -- 88
2018-07-22 09:00:00 14.3 0 Calma 4 Norte 0 -- -- 100
2018-07-22 08:00:00 12.7 0 Calma 2 Norte 0 -- -- 100
2018-07-22 07:00:00 12.4 0 Calma 2 Norte 0 -- -- 100
2018-07-22 06:00:00 12.8 0 Calma 2 Norte 0 -- -- 100
2018-07-22 05:00:00 13.4 0 Calma 2 Norte 0 -- -- 100
2018-07-22 04:00:00 14.1 0 Calma 2 Norte 0 -- -- 99
2018-07-22 03:00:00 15.1 0 Calma 3 Norte 0 -- -- 99
2018-07-22 02:00:00 15.4 0 Calma 2 Norte 0 -- -- 99
2018-07-22 01:00:00 -- 0 Calma 2 Norte 0 -- -- --
2018-07-22 00:00:00 15.6 0 Calma 3 Norte 0 -- -- 96
2018-07-21 23:00:00 15.7 0 Calma 5 Nordeste 0 -- -- 95
2018-07-21 22:00:00 16.5 0 Calma 6 Nordeste 0 -- -- 89
2018-07-21 21:00:00 17.4 0 Calma 10 Este 0 -- -- 87
2018-07-21 20:00:00 18.5 3 Nordeste 12 Noroeste 0 -- -- 80
2018-07-21 19:00:00 19.5 4 Nordeste 14 Nordeste 0 -- -- 74
2018-07-21 18:00:00 19.4 5 Este 13 Sudeste 0 -- -- 74
2018-07-21 17:00:00 20.3 3 Norte 8 Norte 0 -- -- 67
2018-07-21 16:00:00 19.9 3 Este 9 Este 0 -- -- 71
2018-07-21 15:00:00 18.7 3 Oeste 14 Oeste 0 -- -- 71
2018-07-21 14:00:00 18.7 3 Noroeste 10 Oeste 0 -- -- 70
2018-07-21 13:00:00 18 3 Noroeste 10 Sur 0 -- -- 77
2018-07-21 12:00:00 16.3 4 Noroeste 10 Sur 0 -- -- 88
2018-07-21 11:00:00 15.7 3 Sur 8 Oeste 0 -- -- 98
2018-07-21 10:00:00 14.5 0 Calma 3 Sudoeste 0 -- -- 100
2018-07-21 09:00:00 14.2 0 Calma 2 Oeste 0 -- -- 100
2018-07-21 08:00:00 13.8 0 Calma 4 Sudoeste 0 -- -- 100
2018-07-21 07:00:00 13.7 0 Calma 2 Oeste 0 -- -- 100
2018-07-21 06:00:00 14 0 Calma 4 Sur 0.6 -- -- 100
2018-07-21 05:00:00 14 0 Calma 4 Sudeste 0.2 -- -- 100
2018-07-21 04:00:00 14.1 2 Sur 6 Sur 1 -- -- 100
2018-07-21 03:00:00 14.1 0 Calma 9 Sudeste 0.2 -- -- 100
2018-07-21 02:00:00 14.2 0 Calma 11 Sudeste 0.6 -- -- 100
2018-07-21 01:00:00 -- 0 Calma 4 Sur 1 -- -- --
2018-07-21 00:00:00 14.2 0 Calma 5 Sudoeste 0 -- -- 100
2018-07-20 23:00:00 14.2 3 Sur 15 Sudoeste 0.4 -- -- 98
2018-07-20 22:00:00 15.2 3 Sur 9 Sudoeste 0.4 -- -- 99
2018-07-20 21:00:00 15.4 0 Calma 12 Sudeste 0.2 -- -- 100
2018-07-20 20:00:00 15.7 4 Sudoeste 22 Nordeste 1.6 -- -- 98
2018-07-20 19:00:00 16.4 3 Nordeste 18 Sudeste 0.4 -- -- 98
2018-07-20 18:00:00 17.2 4 Sudeste 15 Sudeste 0.2 -- -- 96
2018-07-20 17:00:00 17.6 0 Calma 12 Noroeste 0.2 -- -- 96
2018-07-20 16:00:00 17.6 2 Oeste 7 Norte 0.2 -- -- 95
2018-07-20 15:00:00 17.9 0 Calma 9 Noroeste 0 -- -- 93
2018-07-20 14:00:00 18.1 0 Calma 10 Noroeste 0 -- -- 92
2018-07-20 13:00:00 17.3 2 Nordeste 9 Este 0 -- -- 98
2018-07-20 12:00:00 16.7 2 Este 8 Este 0.4 -- -- 100
2018-07-20 11:00:00 16.2 0 Calma 10 Este 0.2 -- -- 100
2018-07-20 10:00:00 16.2 2 Norte 7 Nordeste 0.8 -- -- 100
2018-07-20 09:00:00 16.2 2 Nordeste 12 Sudoeste 0.6 -- -- 100
2018-07-20 08:00:00 16.4 3 Noroeste 11 Noroeste 1.4 -- -- 100
2018-07-20 07:00:00 16.5 0 Calma 10 Este 0.6 -- -- 100
2018-07-20 06:00:00 16.6 4 Este 10 Sudeste 0.8 -- -- 100
2018-07-20 05:00:00 16.8 3 Noroeste 14 Norte 1.2 -- -- 100
2018-07-20 04:00:00 17.1 2 Sudeste 5 Sudoeste 0.8 -- -- 100
2018-07-20 03:00:00 17.3 0 Calma 4 Oeste 0.6 -- -- 100
2018-07-20 02:00:00 17.4 0 Calma 6 Sudoeste 0.2 -- -- 100
2018-07-20 01:00:00 17.3 2 Sudoeste 9 Sur 0 -- -- 99
2018-07-20 00:00:00 17.4 4 Sur 9 Sur 0 -- -- 98